createdAt,value
2023-03-11T00:00:09.180Z,2.07
2023-03-11T00:03:50.933Z,1.70
2023-03-11T00:07:32.726Z,1.90
2023-03-11T00:11:14.742Z,2.10
2023-03-11T00:14:56.475Z,1.80
2023-03-11T00:18:38.291Z,1.63
2023-03-11T00:22:20.121Z,1.50
2023-03-11T00:26:03.254Z,1.47
2023-03-11T00:29:45.037Z,1.90
2023-03-11T00:33:26.821Z,1.47
2023-03-11T00:37:08.950Z,1.60
2023-03-11T00:40:51.320Z,1.50
2023-03-11T00:44:33.060Z,1.50
2023-03-11T00:48:15.248Z,1.43
2023-03-11T00:51:57.028Z,1.83
2023-03-11T00:55:38.795Z,1.60
2023-03-11T00:59:20.663Z,2.10
2023-03-11T01:03:02.775Z,1.70
2023-03-11T01:06:46.022Z,1.60
2023-03-11T01:10:29.034Z,1.77
2023-03-11T01:14:10.901Z,2.00
2023-03-11T01:17:52.662Z,1.50
2023-03-11T01:21:34.392Z,1.40
2023-03-11T01:25:18.900Z,1.33
2023-03-11T01:29:00.660Z,1.40
2023-03-11T01:32:42.967Z,1.47
2023-03-11T01:36:25.089Z,1.50
2023-03-11T01:40:10.565Z,1.80
2023-03-11T01:43:54.782Z,1.47
2023-03-11T01:47:40.100Z,1.57
2023-03-11T01:51:28.485Z,1.70
2023-03-11T01:55:11.638Z,1.57
2023-03-11T01:59:33.782Z,1.73
2023-03-11T02:03:27.125Z,1.80
2023-03-11T02:07:10.163Z,1.57
2023-03-11T02:10:53.327Z,1.40
2023-03-11T02:14:35.808Z,1.90
2023-03-11T02:18:22.248Z,1.30
2023-03-11T02:22:04.426Z,1.97
2023-03-11T02:25:55.970Z,1.60
2023-03-11T02:29:38.557Z,1.83
2023-03-11T02:33:20.363Z,1.67
2023-03-11T02:37:08.905Z,1.67
2023-03-11T02:41:00.328Z,1.40
2023-03-11T02:44:44.179Z,1.67
2023-03-11T02:48:27.279Z,1.30
2023-03-11T02:52:09.063Z,1.23
2023-03-11T02:55:50.755Z,1.50
2023-03-11T02:59:32.481Z,1.43
2023-03-11T03:03:14.372Z,1.33
2023-03-11T03:06:56.208Z,1.10
2023-03-11T03:10:37.951Z,1.10
2023-03-11T03:14:19.919Z,1.40
2023-03-11T03:18:01.746Z,1.37
2023-03-11T03:21:43.470Z,1.40
2023-03-11T03:25:25.222Z,1.37
2023-03-11T03:29:07.032Z,1.40
2023-03-11T03:32:48.864Z,1.20
2023-03-11T03:36:30.581Z,1.20
2023-03-11T03:40:12.955Z,1.23
2023-03-11T03:43:54.833Z,1.30
2023-03-11T03:47:36.742Z,1.20
2023-03-11T03:51:18.521Z,1.20
2023-03-11T03:55:00.364Z,0.97
2023-03-11T03:58:42.160Z,1.20
2023-03-11T04:02:24.076Z,1.30
2023-03-11T04:06:08.814Z,1.30
2023-03-11T04:09:50.621Z,1.07
2023-03-11T04:13:32.564Z,1.00
2023-03-11T04:17:14.816Z,1.10
2023-03-11T04:20:56.609Z,1.10
2023-03-11T04:24:38.357Z,1.57
2023-03-11T04:28:20.224Z,1.20
2023-03-11T04:32:01.947Z,1.30
2023-03-11T04:35:43.715Z,1.10
2023-03-11T04:39:25.453Z,1.20
2023-03-11T04:43:07.247Z,1.03
2023-03-11T04:46:48.989Z,1.00
2023-03-11T04:50:31.054Z,1.27
2023-03-11T04:54:12.804Z,1.07
2023-03-11T04:57:54.498Z,0.97
2023-03-11T05:01:36.240Z,0.80
2023-03-11T05:05:21.092Z,1.10
2023-03-11T05:09:03.033Z,1.07
2023-03-11T05:12:44.735Z,1.03
2023-03-11T05:16:26.498Z,1.00
2023-03-11T05:20:09.099Z,1.30
2023-03-11T05:23:50.809Z,0.80
2023-03-11T05:27:32.995Z,1.13
2023-03-11T05:31:14.735Z,1.00
2023-03-11T05:34:56.490Z,0.93
2023-03-11T05:38:38.309Z,0.97
2023-03-11T05:42:21.475Z,0.90
2023-03-11T05:46:03.448Z,1.10
2023-03-11T05:49:47.895Z,1.00
2023-03-11T05:53:29.569Z,1.13
2023-03-11T05:57:11.279Z,1.00
2023-03-11T06:00:53.267Z,0.90
2023-03-11T06:04:35.172Z,0.90
2023-03-11T06:08:17.228Z,0.90
2023-03-11T06:11:58.955Z,1.00
2023-03-11T06:15:40.695Z,0.83
2023-03-11T06:19:23.175Z,1.00
2023-03-11T06:23:04.975Z,0.80
2023-03-11T06:26:46.876Z,0.87
2023-03-11T06:30:28.565Z,0.97
2023-03-11T06:34:11.562Z,0.90
2023-03-11T06:37:53.308Z,1.00
2023-03-11T06:41:35.332Z,0.70
2023-03-11T06:45:18.960Z,0.90
2023-03-11T06:49:02.266Z,0.87
2023-03-11T06:52:44.020Z,0.90
2023-03-11T06:56:26.131Z,0.77
2023-03-11T07:00:12.215Z,1.03
2023-03-11T07:03:54.055Z,0.80
2023-03-11T07:07:35.818Z,0.80
2023-03-11T07:11:21.658Z,0.80
2023-03-11T07:15:03.901Z,1.20
2023-03-11T07:18:47.252Z,0.70
2023-03-11T07:22:30.538Z,0.80
2023-03-11T07:26:15.253Z,0.90
2023-03-11T07:29:57.041Z,0.87
2023-03-11T07:33:38.814Z,0.80
2023-03-11T07:37:20.508Z,0.87
2023-03-11T07:41:02.632Z,0.60
2023-03-11T07:44:44.337Z,0.63
2023-03-11T07:48:26.034Z,0.60
2023-03-11T07:52:07.845Z,0.63
2023-03-11T07:55:55.191Z,0.70
2023-03-11T07:59:36.896Z,1.07
2023-03-11T08:03:18.924Z,0.90
2023-03-11T08:07:00.628Z,0.90
2023-03-11T08:10:42.374Z,1.20
2023-03-11T08:14:24.140Z,0.90
2023-03-11T08:18:06.223Z,0.80
2023-03-11T08:21:48.237Z,0.70
2023-03-11T08:25:30.039Z,0.63
2023-03-11T08:29:11.971Z,0.80
2023-03-11T08:32:53.706Z,0.90
2023-03-11T08:36:35.607Z,0.63
2023-03-11T08:40:17.629Z,0.83
2023-03-11T08:43:59.721Z,0.73
2023-03-11T08:47:41.890Z,0.80
2023-03-11T08:51:25.740Z,0.90
2023-03-11T08:55:08.943Z,1.17
2023-03-11T08:58:50.927Z,1.10
2023-03-11T09:02:32.664Z,0.90
2023-03-11T09:06:16.398Z,0.80
2023-03-11T09:09:58.157Z,1.50
2023-03-11T09:13:41.145Z,0.80
2023-03-11T09:17:23.059Z,0.80
2023-03-11T09:21:05.068Z,0.83
2023-03-11T09:24:46.871Z,0.97
2023-03-11T09:28:28.583Z,0.80
2023-03-11T09:32:13.347Z,0.80
2023-03-11T09:35:55.128Z,1.13
2023-03-11T09:39:36.924Z,1.17
2023-03-11T09:43:46.181Z,0.77
2023-03-11T09:47:38.156Z,0.53
2023-03-11T09:51:27.613Z,1.03
2023-03-11T09:55:37.750Z,1.00
2023-03-11T09:59:30.639Z,0.80
2023-03-11T10:03:39.721Z,0.90
2023-03-11T10:07:27.821Z,0.57
2023-03-11T10:12:00.190Z,0.80
2023-03-11T10:15:56.619Z,0.90
2023-03-11T10:19:51.850Z,0.80
2023-03-11T10:24:15.326Z,0.70
2023-03-11T10:28:05.216Z,0.77
2023-03-11T10:31:53.397Z,0.80
2023-03-11T10:35:42.337Z,0.53
2023-03-11T10:39:25.485Z,0.50
2023-03-11T10:43:17.291Z,0.63
2023-03-11T10:46:59.449Z,0.60
2023-03-11T10:51:11.319Z,0.77
2023-03-11T10:55:03.454Z,0.50
2023-03-11T10:58:49.416Z,0.70
2023-03-11T11:02:33.197Z,0.67
2023-03-11T11:06:29.602Z,0.60
2023-03-11T11:10:25.843Z,0.60
2023-03-11T11:14:09.425Z,0.60
2023-03-11T11:17:53.111Z,0.80
2023-03-11T11:21:39.412Z,0.50
2023-03-11T11:25:37.058Z,0.60
2023-03-11T11:29:18.898Z,0.50
2023-03-11T11:33:22.396Z,0.50
2023-03-11T11:37:05.969Z,0.50
2023-03-11T11:40:47.816Z,0.40
2023-03-11T11:44:34.411Z,0.60
2023-03-11T11:48:52.991Z,0.50
2023-03-11T11:52:45.275Z,0.30
2023-03-11T11:56:28.008Z,0.50
2023-03-11T12:00:20.256Z,0.40
2023-03-11T12:04:27.913Z,0.60
2023-03-11T12:08:17.678Z,0.40
2023-03-11T12:12:16.291Z,0.32
2023-03-11T12:16:31.478Z,0.40
2023-03-11T12:20:16.295Z,0.50
2023-03-11T12:24:03.592Z,0.50
2023-03-11T12:27:51.727Z,0.30
2023-03-11T12:31:39.435Z,0.40
2023-03-11T12:35:33.739Z,0.50
2023-03-11T12:39:28.625Z,0.40
2023-03-11T12:43:48.584Z,0.40
2023-03-11T12:47:30.479Z,0.40
2023-03-11T12:51:27.231Z,0.30
2023-03-11T12:55:17.934Z,0.40
2023-03-11T12:59:27.735Z,0.30
2023-03-11T13:03:34.230Z,0.40
2023-03-11T13:07:48.352Z,0.30
2023-03-11T13:11:33.141Z,0.30
2023-03-11T13:15:20.962Z,0.40
2023-03-11T13:19:34.523Z,0.50
2023-03-11T13:23:30.238Z,0.30
2023-03-11T13:27:28.622Z,0.50
2023-03-11T13:31:15.068Z,0.40
2023-03-11T13:35:27.295Z,0.47
2023-03-11T13:39:26.815Z,0.40
2023-03-11T13:43:21.488Z,0.50
2023-03-11T13:47:10.135Z,0.50
2023-03-11T13:51:05.013Z,0.20
2023-03-11T13:54:59.404Z,0.40
2023-03-11T13:58:42.344Z,0.30
2023-03-11T14:02:26.712Z,0.30
2023-03-11T14:06:20.232Z,0.30
2023-03-11T14:10:20.917Z,0.30
2023-03-11T14:14:19.676Z,0.30
2023-03-11T14:18:28.671Z,1.10
2023-03-11T14:22:10.883Z,0.90
2023-03-11T14:26:01.244Z,0.40
2023-03-11T14:33:26.596Z,0.30
2023-03-11T14:37:25.845Z,0.23
2023-03-11T14:41:13.199Z,0.20
2023-03-11T14:45:15.628Z,0.20
2023-03-11T14:48:59.773Z,0.30
2023-03-11T14:52:49.755Z,0.23
2023-03-11T14:56:33.652Z,0.30
2023-03-11T15:00:38.582Z,0.30
2023-03-11T15:04:33.372Z,0.30
2023-03-11T15:08:21.994Z,0.20
2023-03-11T15:12:04.687Z,0.30
2023-03-11T15:15:57.166Z,0.30
2023-03-11T15:19:38.949Z,0.30
2023-03-11T15:23:22.733Z,0.27
2023-03-11T15:27:28.155Z,0.50
2023-03-11T15:31:21.739Z,0.43
2023-03-11T15:35:17.776Z,0.43
2023-03-11T15:39:14.503Z,0.47
2023-03-11T15:43:14.827Z,0.33
2023-03-11T15:46:59.232Z,0.35
2023-03-11T15:50:54.735Z,0.40
2023-03-11T15:54:37.034Z,0.47
2023-03-11T15:58:20.406Z,0.30
2023-03-11T16:02:02.211Z,0.30
2023-03-11T16:05:44.276Z,0.30
2023-03-11T16:09:26.033Z,0.63
2023-03-11T16:13:11.981Z,0.70
2023-03-11T16:16:53.672Z,0.57
2023-03-11T16:20:47.940Z,0.50
2023-03-11T16:24:29.725Z,0.87
2023-03-11T16:28:14.453Z,0.40
2023-03-11T16:31:56.151Z,0.50
2023-03-11T16:35:38.143Z,0.40
2023-03-11T16:39:20.004Z,0.40
2023-03-11T16:43:09.614Z,0.40
2023-03-11T16:46:51.451Z,0.50
2023-03-11T16:50:34.501Z,0.50
2023-03-11T16:54:17.915Z,0.50
2023-03-11T16:57:59.658Z,0.40
2023-03-11T17:01:42.229Z,0.50
2023-03-11T17:05:24.029Z,0.50
2023-03-11T17:09:06.335Z,0.60
2023-03-11T17:12:48.027Z,0.50
2023-03-11T17:16:29.956Z,0.50
2023-03-11T17:20:12.449Z,0.53
2023-03-11T17:23:54.364Z,0.50
2023-03-11T17:27:36.189Z,0.53
2023-03-11T17:31:18.073Z,0.40
2023-03-11T17:35:00.068Z,0.50
2023-03-11T17:38:43.017Z,0.50
2023-03-11T17:42:24.741Z,0.60
2023-03-11T17:46:11.434Z,0.60
2023-03-11T17:49:53.209Z,0.50
2023-03-11T17:53:37.025Z,0.50
2023-03-11T17:57:18.722Z,0.40
2023-03-11T18:01:04.798Z,0.60
2023-03-11T18:04:52.055Z,0.60
2023-03-11T18:08:35.280Z,0.70
2023-03-11T18:12:17.079Z,0.40
2023-03-11T18:16:02.877Z,0.50
2023-03-11T18:19:44.599Z,0.60
2023-03-11T18:23:26.274Z,0.67
2023-03-11T18:27:08.075Z,0.70
2023-03-11T18:30:49.763Z,0.60
2023-03-11T18:34:32.273Z,0.63
2023-03-11T18:38:14.001Z,0.53
2023-03-11T18:41:55.731Z,0.80
2023-03-11T18:45:39.422Z,0.80
2023-03-11T18:49:21.155Z,0.83
2023-03-11T18:53:03.030Z,0.63
2023-03-11T18:56:44.842Z,0.87
2023-03-11T19:00:26.528Z,0.90
2023-03-11T19:04:10.051Z,0.87
2023-03-11T19:07:51.888Z,1.00
2023-03-11T19:11:33.677Z,0.83
2023-03-11T19:15:15.403Z,0.80
2023-03-11T19:18:57.172Z,0.80
2023-03-11T19:22:38.974Z,1.17
2023-03-11T19:26:30.766Z,1.00
2023-03-11T19:30:20.581Z,0.60
2023-03-11T19:34:03.351Z,0.60
2023-03-11T19:37:45.079Z,0.50
2023-03-11T19:41:26.824Z,0.63
2023-03-11T19:45:09.545Z,0.60
2023-03-11T19:48:51.323Z,0.70
2023-03-11T19:52:35.548Z,0.90
2023-03-11T19:56:17.331Z,0.77
2023-03-11T19:59:59.099Z,0.67
2023-03-11T20:03:40.905Z,0.60
2023-03-11T20:07:22.982Z,0.67
2023-03-11T20:11:06.536Z,0.60
2023-03-11T20:14:48.448Z,0.50
2023-03-11T20:18:30.171Z,0.70
2023-03-11T20:22:11.924Z,0.50
2023-03-11T20:25:53.721Z,0.50
2023-03-11T20:29:35.442Z,0.60
2023-03-11T20:33:17.192Z,0.70
2023-03-11T20:36:59.055Z,0.67
2023-03-11T20:40:40.972Z,0.60
2023-03-11T20:44:22.820Z,0.60
2023-03-11T20:48:04.636Z,0.63
2023-03-11T20:51:48.141Z,0.60
2023-03-11T20:55:29.997Z,0.50
2023-03-11T20:59:14.603Z,0.60
2023-03-11T21:02:56.508Z,0.77
2023-03-11T21:06:41.066Z,0.60
2023-03-11T21:10:22.790Z,0.70
2023-03-11T21:14:05.187Z,0.53
2023-03-11T21:17:47.051Z,0.60
2023-03-11T21:21:28.913Z,0.50
2023-03-11T21:25:10.645Z,0.57
2023-03-11T21:28:52.342Z,0.60
2023-03-11T21:32:34.215Z,0.43
2023-03-11T21:36:16.860Z,0.50
2023-03-11T21:39:58.788Z,0.50
2023-03-11T21:43:41.856Z,0.40
2023-03-11T21:47:23.627Z,0.50
2023-03-11T21:51:05.936Z,0.60
2023-03-11T21:54:47.638Z,0.43
2023-03-11T21:58:29.929Z,0.40
2023-03-11T22:02:16.370Z,0.40
2023-03-11T22:05:59.936Z,0.47
2023-03-11T22:09:41.682Z,0.53
2023-03-11T22:13:24.364Z,0.50
2023-03-11T22:17:06.317Z,0.50
2023-03-11T22:20:48.124Z,0.40
2023-03-11T22:24:29.813Z,0.50
2023-03-11T22:28:12.959Z,0.50
2023-03-11T22:31:54.857Z,0.53
2023-03-11T22:35:36.666Z,0.70
2023-03-11T22:39:18.457Z,0.50
2023-03-11T22:43:00.217Z,0.60
2023-03-11T22:46:41.927Z,0.53
2023-03-11T22:50:23.735Z,0.50
2023-03-11T22:54:05.487Z,0.77
2023-03-11T22:57:47.189Z,0.50
2023-03-11T23:01:29.187Z,0.67
2023-03-11T23:05:11.700Z,0.60
2023-03-11T23:08:53.729Z,0.80
2023-03-11T23:12:36.511Z,0.60
2023-03-11T23:16:21.164Z,0.70
2023-03-11T23:20:06.002Z,1.00
2023-03-11T23:23:48.187Z,0.80
2023-03-11T23:27:29.956Z,0.93
2023-03-11T23:31:14.487Z,1.03
2023-03-11T23:34:56.236Z,1.10
2023-03-11T23:38:38.424Z,1.20
2023-03-11T23:42:25.939Z,1.00
2023-03-11T23:46:10.188Z,1.00
2023-03-11T23:49:51.975Z,0.80
2023-03-11T23:53:33.859Z,0.90
2023-03-11T23:57:15.610Z,0.87
